createdAt,value
2023-01-25T00:01:20.949Z,103455.19
2023-01-25T00:03:50.732Z,103447.75
2023-01-25T00:06:23.448Z,103444.84
2023-01-25T00:08:53.545Z,103448.00
2023-01-25T00:11:23.417Z,103444.06
2023-01-25T00:13:56.164Z,103442.41
2023-01-25T00:16:26.889Z,103438.69
2023-01-25T00:18:56.665Z,103438.28
2023-01-25T00:21:30.299Z,103430.59
2023-01-25T00:24:00.185Z,103430.44
2023-01-25T00:26:30.181Z,103433.75
2023-01-25T00:29:00.330Z,103430.03
2023-01-25T00:31:40.227Z,103424.44
2023-01-25T00:34:30.180Z,103420.09
2023-01-25T00:37:05.935Z,103420.94
2023-01-25T00:39:35.793Z,103410.63
2023-01-25T00:42:05.781Z,103410.63
2023-01-25T00:44:35.643Z,103413.91
2023-01-25T00:47:05.507Z,103408.31
2023-01-25T00:49:35.916Z,103407.03
2023-01-25T00:52:08.692Z,103405.97
2023-01-25T00:54:38.548Z,103405.16
2023-01-25T00:57:08.563Z,103401.41
2023-01-25T00:59:38.778Z,103396.03
2023-01-25T01:02:08.660Z,103403.88
2023-01-25T01:04:38.541Z,103406.81
2023-01-25T01:07:11.126Z,103399.81
2023-01-25T01:09:41.195Z,103409.94
2023-01-25T01:12:10.999Z,103412.22
2023-01-25T01:14:41.165Z,103411.59
2023-01-25T01:17:11.236Z,103405.16
2023-01-25T01:19:41.255Z,103408.88
2023-01-25T01:22:13.776Z,103409.66
2023-01-25T01:24:43.650Z,103415.84
2023-01-25T01:27:13.563Z,103410.50
2023-01-25T01:29:43.315Z,103408.84
2023-01-25T01:32:13.343Z,103402.19
2023-01-25T01:34:43.871Z,103400.09
2023-01-25T01:37:16.197Z,103402.56
2023-01-25T01:39:46.099Z,103399.69
2023-01-25T01:42:16.230Z,103403.44
2023-01-25T01:44:51.443Z,103395.19
2023-01-25T01:47:25.496Z,103392.13
2023-01-25T01:50:00.403Z,103391.09
2023-01-25T01:52:36.673Z,103389.03
2023-01-25T01:55:11.950Z,103397.69
2023-01-25T01:57:46.166Z,103392.31
2023-01-25T02:00:19.416Z,103390.69
2023-01-25T02:02:50.866Z,103392.75
2023-01-25T02:05:25.600Z,103388.41
2023-01-25T02:08:01.954Z,103392.50
2023-01-25T02:10:33.385Z,103389.78
2023-01-25T02:13:03.444Z,103394.13
2023-01-25T02:15:45.295Z,103398.03
2023-01-25T02:18:16.268Z,103394.06
2023-01-25T02:20:48.227Z,103393.09
2023-01-25T02:23:29.778Z,103392.84
2023-01-25T02:26:06.004Z,103388.69
2023-01-25T02:28:41.521Z,103398.19
2023-01-25T02:31:11.578Z,103387.72
2023-01-25T02:33:41.533Z,103397.41
2023-01-25T02:36:23.251Z,103391.34
2023-01-25T02:38:57.538Z,103389.03
2023-01-25T02:41:37.104Z,103389.03
2023-01-25T02:44:09.538Z,103381.44
2023-01-25T02:46:41.114Z,103390.91
2023-01-25T02:49:12.708Z,103390.28
2023-01-25T02:51:44.855Z,103394.56
2023-01-25T02:54:15.743Z,103388.81
2023-01-25T02:56:48.283Z,103385.94
2023-01-25T02:59:19.140Z,103387.34
2023-01-25T03:01:49.159Z,103394.56
2023-01-25T03:04:19.065Z,103393.53
2023-01-25T03:06:48.794Z,103385.13
2023-01-25T03:09:18.818Z,103391.47
2023-01-25T03:11:51.173Z,103381.78
2023-01-25T03:14:21.040Z,103377.84
2023-01-25T03:16:50.850Z,103375.19
2023-01-25T03:19:20.632Z,103369.81
2023-01-25T03:21:50.368Z,103373.53
2023-01-25T03:24:20.271Z,103368.22
2023-01-25T03:27:05.147Z,103364.13
2023-01-25T03:29:35.158Z,103362.06
2023-01-25T03:32:05.453Z,103359.38
2023-01-25T03:34:35.319Z,103358.56
2023-01-25T03:37:05.283Z,103353.41
2023-01-25T03:39:35.109Z,103345.34
2023-01-25T03:42:08.370Z,103347.59
2023-01-25T03:44:38.094Z,103343.03
2023-01-25T03:47:08.033Z,103343.63
2023-01-25T03:49:37.949Z,103339.28
2023-01-25T03:52:08.368Z,103342.59
2023-01-25T03:54:41.018Z,103339.28
2023-01-25T03:57:13.429Z,103339.28
2023-01-25T03:59:43.472Z,103334.75
2023-01-25T04:02:14.818Z,103335.13
2023-01-25T04:04:44.663Z,103336.13
2023-01-25T04:07:14.792Z,103334.72
2023-01-25T04:09:44.948Z,103326.09
2023-01-25T04:12:17.404Z,103320.72
2023-01-25T04:14:47.122Z,103316.56
2023-01-25T04:17:17.000Z,103318.88
2023-01-25T04:19:46.854Z,103306.50
2023-01-25T04:22:16.980Z,103303.81
2023-01-25T04:24:46.988Z,103312.84
2023-01-25T04:27:19.451Z,103305.84
2023-01-25T04:29:49.446Z,103309.19
2023-01-25T04:32:19.425Z,103302.16
2023-01-25T04:34:49.301Z,103293.53
2023-01-25T04:37:19.028Z,103291.09
2023-01-25T04:39:48.909Z,103287.59
2023-01-25T04:42:21.372Z,103283.66
2023-01-25T04:44:51.198Z,103284.91
2023-01-25T04:47:21.095Z,103276.88
2023-01-25T04:49:51.129Z,103273.34
2023-01-25T04:52:20.899Z,103278.06
2023-01-25T04:54:50.691Z,103273.31
2023-01-25T04:57:23.154Z,103280.25
2023-01-25T04:59:52.963Z,103286.84
2023-01-25T05:02:23.068Z,103283.50
2023-01-25T05:04:53.115Z,103283.47
2023-01-25T05:07:22.957Z,103280.41
2023-01-25T05:09:53.128Z,103274.25
2023-01-25T05:12:25.578Z,103272.19
2023-01-25T05:14:55.962Z,103282.72
2023-01-25T05:17:25.807Z,103278.63
2023-01-25T05:19:55.644Z,103281.06
2023-01-25T05:22:25.778Z,103281.47
2023-01-25T05:24:55.829Z,103281.03
2023-01-25T05:27:26.121Z,103276.69
2023-01-25T05:29:56.161Z,103275.22
2023-01-25T05:32:26.885Z,103272.19
2023-01-25T05:34:56.692Z,103270.97
2023-01-25T05:37:26.424Z,103270.16
2023-01-25T05:39:56.509Z,103274.72
2023-01-25T05:42:28.913Z,103276.41
2023-01-25T05:44:58.718Z,103278.50
2023-01-25T05:47:28.887Z,103275.22
2023-01-25T05:49:58.698Z,103280.16
2023-01-25T05:52:28.583Z,103271.53
2023-01-25T05:54:58.636Z,103270.94
2023-01-25T05:57:31.753Z,103267.47
2023-01-25T06:00:01.510Z,103267.91
2023-01-25T06:02:32.161Z,103259.44
2023-01-25T06:05:02.013Z,103253.22
2023-01-25T06:07:32.723Z,103253.84
2023-01-25T06:10:02.810Z,103254.22
2023-01-25T06:12:36.292Z,103255.25
2023-01-25T06:15:07.175Z,103254.22
2023-01-25T06:17:37.283Z,103251.78
2023-01-25T06:20:08.074Z,103260.84
2023-01-25T06:22:37.978Z,103252.16
2023-01-25T06:25:09.392Z,103260.38
2023-01-25T06:27:42.620Z,103261.81
2023-01-25T06:30:14.164Z,103259.34
2023-01-25T06:32:44.057Z,103252.13
2023-01-25T06:35:13.816Z,103246.16
2023-01-25T06:37:43.571Z,103247.41
2023-01-25T06:40:15.008Z,103247.00
2023-01-25T06:42:47.426Z,103241.84
2023-01-25T06:45:17.772Z,103246.81
2023-01-25T06:47:47.552Z,103246.41
2023-01-25T06:50:18.241Z,103249.47
2023-01-25T06:52:54.848Z,103253.97
2023-01-25T06:55:24.881Z,103256.28
2023-01-25T06:57:57.336Z,103255.78
2023-01-25T07:00:27.364Z,103257.34
2023-01-25T07:02:57.460Z,103261.06
2023-01-25T07:05:27.281Z,103254.06
2023-01-25T07:07:57.266Z,103251.25
2023-01-25T07:10:26.964Z,103252.72
2023-01-25T07:12:59.599Z,103252.50
2023-01-25T07:15:29.375Z,103262.84
2023-01-25T07:18:05.600Z,103249.66
2023-01-25T07:20:42.369Z,103244.94
2023-01-25T07:23:12.231Z,103251.31
2023-01-25T07:25:47.021Z,103247.16
2023-01-25T07:28:20.529Z,103250.84
2023-01-25T07:30:50.449Z,103248.28
2023-01-25T07:33:20.613Z,103240.88
2023-01-25T07:35:51.124Z,103245.44
2023-01-25T07:38:20.946Z,103238.47
2023-01-25T07:40:55.320Z,103239.72
2023-01-25T07:43:28.241Z,103243.06
2023-01-25T07:46:03.905Z,103243.69
2023-01-25T07:48:34.022Z,103233.19
2023-01-25T07:51:23.061Z,103232.78
2023-01-25T07:53:54.412Z,103228.03
2023-01-25T07:56:25.385Z,103230.34
2023-01-25T07:58:58.803Z,103228.69
2023-01-25T08:01:31.253Z,103229.72
2023-01-25T08:04:01.260Z,103230.09
2023-01-25T08:06:36.101Z,103228.47
2023-01-25T08:09:09.920Z,103221.03
2023-01-25T08:11:42.675Z,103217.97
2023-01-25T08:14:15.465Z,103220.84
2023-01-25T08:16:45.267Z,103224.97
2023-01-25T08:19:16.072Z,103222.53
2023-01-25T08:21:46.087Z,103228.28
2023-01-25T08:24:17.308Z,103219.84
2023-01-25T08:26:48.109Z,103221.50
2023-01-25T08:29:20.686Z,103215.13
2023-01-25T08:31:50.587Z,103221.31
2023-01-25T08:34:20.520Z,103225.41
2023-01-25T08:39:20.656Z,103219.22
2023-01-25T08:41:50.584Z,103211.34
2023-01-25T08:44:28.807Z,103213.41
2023-01-25T08:46:58.782Z,103212.16
2023-01-25T08:49:28.791Z,103207.63
2023-01-25T08:51:58.654Z,103212.63
2023-01-25T08:54:28.435Z,103214.50
2023-01-25T08:56:58.340Z,103208.72
2023-01-25T08:59:30.977Z,103208.31
2023-01-25T09:02:00.801Z,103213.06
2023-01-25T09:04:30.888Z,103206.88
2023-01-25T09:07:00.830Z,103196.13
2023-01-25T09:09:30.800Z,103203.34
2023-01-25T09:12:00.673Z,103205.41
2023-01-25T09:14:33.464Z,103206.44
2023-01-25T09:17:03.325Z,103199.03
2023-01-25T09:19:33.262Z,103192.03
2023-01-25T09:22:03.814Z,103192.44
2023-01-25T09:24:36.897Z,103191.22
2023-01-25T09:27:07.176Z,103184.84
2023-01-25T09:29:43.708Z,103179.66
2023-01-25T09:32:16.226Z,103177.63
2023-01-25T09:34:46.090Z,103178.00
2023-01-25T09:37:16.111Z,103180.91
2023-01-25T09:39:46.302Z,103177.59
2023-01-25T09:42:49.698Z,103177.97
2023-01-25T09:45:32.279Z,103169.53
2023-01-25T09:48:12.450Z,103175.53
2023-01-25T09:50:53.033Z,103177.16
2023-01-25T09:53:27.209Z,103168.09
2023-01-25T09:56:00.385Z,103173.06
2023-01-25T09:58:36.518Z,103166.44
2023-01-25T10:01:32.838Z,103168.94
2023-01-25T10:04:14.906Z,103166.00
2023-01-25T10:06:55.242Z,103169.31
2023-01-25T10:09:37.000Z,103173.03
2023-01-25T10:12:14.285Z,103168.50
2023-01-25T10:14:44.253Z,103163.56
2023-01-25T10:17:27.108Z,103162.34
2023-01-25T10:20:12.665Z,103154.91
2023-01-25T10:22:50.100Z,103153.28
2023-01-25T10:25:31.714Z,103167.00
2023-01-25T10:28:29.858Z,103158.53
2023-01-25T10:31:03.969Z,103154.25
2023-01-25T10:33:41.970Z,103156.13
2023-01-25T10:36:17.643Z,103142.31
2023-01-25T10:38:49.712Z,103144.63
2023-01-25T10:41:27.066Z,103135.28
2023-01-25T10:44:21.872Z,103122.72
2023-01-25T10:46:56.936Z,103121.69
2023-01-25T10:49:37.440Z,103116.97
2023-01-25T10:52:18.891Z,103116.94
2023-01-25T10:54:50.374Z,103110.97
2023-01-25T10:57:22.514Z,103105.59
2023-01-25T10:59:55.434Z,103103.13
2023-01-25T11:02:42.452Z,103106.25
2023-01-25T11:05:31.572Z,103096.97
2023-01-25T11:08:02.731Z,103091.03
2023-01-25T11:10:36.358Z,103083.97
2023-01-25T11:13:28.482Z,103085.22
2023-01-25T11:16:16.897Z,103076.38
2023-01-25T11:18:53.893Z,103075.13
2023-01-25T11:21:28.534Z,103060.88
2023-01-25T11:24:06.777Z,103050.59
2023-01-25T11:26:37.814Z,103045.22
2023-01-25T11:29:16.452Z,103050.59
2023-01-25T11:31:49.285Z,103044.78
2023-01-25T11:34:21.054Z,103038.59
2023-01-25T11:37:25.585Z,103029.31
2023-01-25T11:40:06.898Z,103026.25
2023-01-25T11:42:46.816Z,103019.63
2023-01-25T11:45:35.949Z,103020.88
2023-01-25T11:48:27.178Z,103008.06
2023-01-25T11:51:06.914Z,103014.06
2023-01-25T11:54:18.708Z,103003.53
2023-01-25T11:57:00.657Z,102998.16
2023-01-25T11:59:53.372Z,102991.16
2023-01-25T12:02:48.517Z,102979.59
2023-01-25T12:05:29.219Z,102967.22
2023-01-25T12:08:19.434Z,102961.03
2023-01-25T12:10:59.085Z,102948.22
2023-01-25T12:13:46.785Z,102938.75
2023-01-25T12:16:36.405Z,102930.50
2023-01-25T12:19:27.196Z,102927.81
2023-01-25T12:22:11.786Z,102917.06
2023-01-25T12:24:53.194Z,102913.97
2023-01-25T12:27:34.329Z,102905.31
2023-01-25T12:30:16.784Z,102906.34
2023-01-25T12:32:57.281Z,102893.75
2023-01-25T12:35:36.142Z,102892.94
2023-01-25T12:38:07.826Z,102889.81
2023-01-25T12:40:49.713Z,102891.47
2023-01-25T12:43:27.191Z,102880.53
2023-01-25T12:46:02.460Z,102871.25
2023-01-25T12:48:37.482Z,102871.28
2023-01-25T12:51:08.247Z,102867.78
2023-01-25T12:53:42.470Z,102853.75
2023-01-25T12:56:20.421Z,102853.94
2023-01-25T12:58:57.875Z,102846.28
2023-01-25T13:01:36.531Z,102833.50
2023-01-25T13:04:28.783Z,102831.84
2023-01-25T13:07:06.602Z,102828.13
2023-01-25T13:09:42.625Z,102818.88
2023-01-25T13:12:14.963Z,102818.25
2023-01-25T13:14:45.267Z,102818.69
2023-01-25T13:17:25.533Z,102805.50
2023-01-25T13:19:56.259Z,102814.16
2023-01-25T13:22:59.015Z,102801.19
2023-01-25T13:25:30.541Z,102800.75
2023-01-25T13:28:43.249Z,102788.19
2023-01-25T13:31:13.467Z,102799.31
2023-01-25T13:33:46.149Z,102794.09
2023-01-25T13:36:41.578Z,102793.28
2023-01-25T13:39:41.290Z,102790.22
2023-01-25T13:42:23.795Z,102792.47
2023-01-25T13:44:56.939Z,102792.66
2023-01-25T13:47:29.008Z,102779.84
2023-01-25T13:50:12.005Z,102772.03
2023-01-25T13:52:42.180Z,102775.31
2023-01-25T13:55:20.991Z,102777.88
2023-01-25T13:57:51.642Z,102778.69
2023-01-25T14:00:22.793Z,102781.38
2023-01-25T14:02:58.021Z,102775.19
2023-01-25T14:05:33.330Z,102779.06
2023-01-25T14:08:03.402Z,102776.59
2023-01-25T14:10:33.333Z,102765.81
2023-01-25T14:13:03.963Z,102764.16
2023-01-25T14:15:36.739Z,102777.34
2023-01-25T14:18:18.998Z,102767.06
2023-01-25T14:20:53.750Z,102762.28
2023-01-25T14:23:28.255Z,102763.34
2023-01-25T14:26:02.287Z,102760.66
2023-01-25T14:28:33.510Z,102765.00
2023-01-25T14:31:06.200Z,102749.53
2023-01-25T14:33:44.576Z,102757.59
2023-01-25T14:36:25.136Z,102755.72
2023-01-25T14:38:55.998Z,102752.66
2023-01-25T14:41:31.186Z,102749.38
2023-01-25T14:44:05.192Z,102732.84
2023-01-25T14:46:36.708Z,102732.00
2023-01-25T14:49:11.232Z,102729.09
2023-01-25T14:51:48.404Z,102727.47
2023-01-25T14:54:22.582Z,102731.56
2023-01-25T14:56:55.778Z,102719.19
2023-01-25T14:59:34.063Z,102723.34
2023-01-25T15:02:07.283Z,102720.75
2023-01-25T15:04:37.395Z,102718.06
2023-01-25T15:07:17.958Z,102717.31
2023-01-25T15:10:05.052Z,102717.31
2023-01-25T15:12:35.750Z,102722.25
2023-01-25T15:15:06.133Z,102713.16
2023-01-25T15:17:40.766Z,102715.66
2023-01-25T15:20:30.450Z,102705.75
2023-01-25T15:23:07.148Z,102706.53
2023-01-25T15:25:37.125Z,102694.56
2023-01-25T15:28:06.978Z,102693.75
2023-01-25T15:30:36.853Z,102694.34
2023-01-25T15:33:07.010Z,102691.66
2023-01-25T15:35:37.652Z,102693.75
2023-01-25T15:38:14.445Z,102690.00
2023-01-25T15:40:44.818Z,102689.78
2023-01-25T15:43:15.741Z,102678.88
2023-01-25T15:45:47.398Z,102682.56
2023-01-25T15:48:19.845Z,102683.06
2023-01-25T15:50:50.104Z,102679.53
2023-01-25T15:53:22.802Z,102673.59
2023-01-25T15:55:56.860Z,102668.59
2023-01-25T15:58:29.502Z,102664.69
2023-01-25T16:01:00.520Z,102667.78
2023-01-25T16:03:30.881Z,102665.53
2023-01-25T16:06:02.325Z,102665.31
2023-01-25T16:08:34.901Z,102662.22
2023-01-25T16:11:04.798Z,102661.22
2023-01-25T16:13:34.964Z,102655.88
2023-01-25T16:16:04.894Z,102659.56
2023-01-25T16:18:34.814Z,102663.28
2023-01-25T16:21:04.590Z,102655.44
2023-01-25T16:23:37.089Z,102660.00
2023-01-25T16:26:07.793Z,102664.13
2023-01-25T16:28:37.633Z,102657.94
2023-01-25T16:31:07.545Z,102657.53
2023-01-25T16:33:37.396Z,102657.91
2023-01-25T16:36:17.240Z,102653.38
2023-01-25T16:38:49.671Z,102657.91
2023-01-25T16:41:19.924Z,102657.09
2023-01-25T16:43:53.646Z,102660.00
2023-01-25T16:46:26.340Z,102655.06
2023-01-25T16:48:56.456Z,102648.03
2023-01-25T16:51:28.332Z,102640.22
2023-01-25T16:54:01.323Z,102640.22
2023-01-25T16:56:33.538Z,102641.03
2023-01-25T16:59:04.604Z,102644.75
2023-01-25T17:01:34.962Z,102648.03
2023-01-25T17:04:04.894Z,102651.34
2023-01-25T17:06:36.731Z,102646.59
2023-01-25T17:09:22.185Z,102642.28
2023-01-25T17:11:53.099Z,102635.28
2023-01-25T17:14:23.346Z,102626.19
2023-01-25T17:16:54.042Z,102627.81
2023-01-25T17:19:23.983Z,102629.91
2023-01-25T17:21:53.889Z,102628.69
2023-01-25T17:24:26.431Z,102630.75
2023-01-25T17:26:59.737Z,102633.69
2023-01-25T17:29:29.912Z,102634.09
2023-01-25T17:32:00.497Z,102635.75
2023-01-25T17:34:30.418Z,102637.41
2023-01-25T17:37:00.514Z,102636.59
2023-01-25T17:39:33.380Z,102639.47
2023-01-25T17:42:03.181Z,102641.09
2023-01-25T17:44:33.028Z,102640.69
2023-01-25T17:47:02.940Z,102639.28
2023-01-25T17:49:33.738Z,102641.09
2023-01-25T17:52:04.804Z,102632.91
2023-01-25T17:54:37.607Z,102639.50
2023-01-25T17:57:07.436Z,102631.28
2023-01-25T17:59:37.334Z,102627.56
2023-01-25T18:02:07.529Z,102627.13
2023-01-25T18:04:37.602Z,102624.69
2023-01-25T18:07:07.433Z,102617.69
2023-01-25T18:09:39.798Z,102614.00
2023-01-25T18:12:10.141Z,102605.38
2023-01-25T18:14:40.076Z,102615.91
2023-01-25T18:17:09.971Z,102604.16
2023-01-25T18:19:40.299Z,102600.44
2023-01-25T18:22:10.107Z,102598.78
2023-01-25T18:24:42.802Z,102597.16
2023-01-25T18:27:21.745Z,102597.16
2023-01-25T18:29:57.360Z,102593.44
2023-01-25T18:32:27.201Z,102595.94
2023-01-25T18:34:57.304Z,102577.81
2023-01-25T18:37:33.479Z,102571.22
2023-01-25T18:40:06.064Z,102571.22
2023-01-25T18:42:35.812Z,102558.88
2023-01-25T18:45:06.312Z,102560.94
2023-01-25T18:47:36.765Z,102562.59
2023-01-25T18:50:07.399Z,102553.94
2023-01-25T18:52:38.081Z,102545.47
2023-01-25T18:55:11.482Z,102539.09
2023-01-25T18:57:41.787Z,102528.81
2023-01-25T19:00:15.098Z,102534.78
2023-01-25T19:02:45.068Z,102533.78
2023-01-25T19:05:18.647Z,102527.41
2023-01-25T19:07:48.356Z,102519.38
2023-01-25T19:10:21.578Z,102518.56
2023-01-25T19:12:51.427Z,102512.38
2023-01-25T19:15:21.189Z,102502.06
2023-01-25T19:17:50.909Z,102500.44
2023-01-25T19:20:21.587Z,102507.00
2023-01-25T19:22:51.470Z,102500.00
2023-01-25T19:25:24.537Z,102482.31
2023-01-25T19:27:54.721Z,102476.53
2023-01-25T19:30:24.696Z,102478.78
2023-01-25T19:32:54.414Z,102473.19
2023-01-25T19:35:24.181Z,102476.34
2023-01-25T19:37:54.059Z,102479.03
2023-01-25T19:40:26.451Z,102468.31
2023-01-25T19:42:56.346Z,102464.59
2023-01-25T19:45:26.295Z,102477.78
2023-01-25T19:47:56.492Z,102478.44
2023-01-25T19:50:26.480Z,102472.03
2023-01-25T19:52:58.036Z,102472.03
2023-01-25T19:55:30.747Z,102473.69
2023-01-25T19:58:00.477Z,102473.25
2023-01-25T20:00:30.412Z,102467.88
2023-01-25T20:03:14.821Z,102460.47
2023-01-25T20:05:45.925Z,102471.19
2023-01-25T20:08:15.727Z,102464.78
2023-01-25T20:10:48.597Z,102458.41
2023-01-25T20:13:18.381Z,102450.97
2023-01-25T20:15:51.188Z,102448.72
2023-01-25T20:18:21.710Z,102451.81
2023-01-25T20:20:58.220Z,102451.22
2023-01-25T20:23:28.321Z,102455.16
2023-01-25T20:26:05.924Z,102444.50
2023-01-25T20:28:37.405Z,102438.09
2023-01-25T20:31:07.891Z,102453.13
2023-01-25T20:33:38.015Z,102453.13
2023-01-25T20:36:09.173Z,102454.38
2023-01-25T20:38:39.630Z,102452.53
2023-01-25T20:41:14.266Z,102456.84
2023-01-25T20:43:49.237Z,102444.03
2023-01-25T20:46:19.639Z,102433.41
2023-01-25T20:48:49.744Z,102425.22
2023-01-25T20:51:21.641Z,102422.31
2023-01-25T20:53:54.592Z,102421.28
2023-01-25T20:56:27.072Z,102423.75
2023-01-25T20:58:57.451Z,102413.03
2023-01-25T21:01:30.453Z,102409.53
2023-01-25T21:04:01.034Z,102410.34
2023-01-25T21:06:31.362Z,102423.53
2023-01-25T21:09:01.270Z,102419.44
2023-01-25T21:11:33.889Z,102412.84
2023-01-25T21:14:03.930Z,102409.56
2023-01-25T21:16:33.868Z,102412.84
2023-01-25T21:19:08.464Z,102412.44
2023-01-25T21:21:38.698Z,102416.75
2023-01-25T21:24:09.859Z,102416.16
2023-01-25T21:26:43.571Z,102421.91
2023-01-25T21:29:13.418Z,102416.41
2023-01-25T21:31:46.478Z,102417.66
2023-01-25T21:34:16.293Z,102423.00
2023-01-25T21:36:46.086Z,102422.59
2023-01-25T21:39:16.048Z,102429.00
2023-01-25T21:41:48.574Z,102428.56
2023-01-25T21:44:30.942Z,102422.75
2023-01-25T21:47:28.478Z,102418.28
2023-01-25T21:50:02.852Z,102422.41
2023-01-25T21:52:34.645Z,102421.19
2023-01-25T21:55:05.748Z,102418.13
2023-01-25T21:57:41.031Z,102410.91
2023-01-25T22:00:12.628Z,102414.63
2023-01-25T22:02:42.701Z,102412.56
2023-01-25T22:05:12.908Z,102408.84
2023-01-25T22:07:42.652Z,102401.22
2023-01-25T22:10:13.977Z,102399.78
2023-01-25T22:12:46.439Z,102400.22
2023-01-25T22:15:16.435Z,102411.34
2023-01-25T22:17:46.318Z,102407.19
2023-01-25T22:20:16.219Z,102408.44
2023-01-25T22:22:45.922Z,102408.44
2023-01-25T22:25:15.664Z,102408.81
2023-01-25T22:27:56.083Z,102407.59
2023-01-25T22:30:26.020Z,102405.69
2023-01-25T22:32:55.818Z,102398.28
2023-01-25T22:35:25.660Z,102405.84
2023-01-25T22:37:55.680Z,102404.22
2023-01-25T22:40:25.450Z,102397.44
2023-01-25T22:42:57.868Z,102399.13
2023-01-25T22:45:27.708Z,102395.84
2023-01-25T22:47:57.477Z,102397.91
2023-01-25T22:50:27.217Z,102386.59
2023-01-25T22:52:56.906Z,102390.31
2023-01-25T22:55:26.789Z,102375.88
2023-01-25T22:57:59.096Z,102381.91
2023-01-25T23:00:29.151Z,102378.81
2023-01-25T23:02:59.121Z,102381.50
2023-01-25T23:05:29.955Z,102380.47
2023-01-25T23:08:00.443Z,102374.06
2023-01-25T23:10:30.248Z,102372.22
2023-01-25T23:13:02.583Z,102359.91
2023-01-25T23:15:32.655Z,102354.56
2023-01-25T23:18:14.874Z,102357.91
2023-01-25T23:20:44.939Z,102352.81
2023-01-25T23:23:15.173Z,102351.16
2023-01-25T23:25:44.945Z,102349.69
2023-01-25T23:28:17.771Z,102341.06
2023-01-25T23:30:47.631Z,102337.34
2023-01-25T23:33:17.500Z,102334.88
2023-01-25T23:35:47.292Z,102334.06
2023-01-25T23:38:17.762Z,102328.91
2023-01-25T23:40:47.635Z,102324.63
2023-01-25T23:43:19.955Z,102327.06
2023-01-25T23:45:49.693Z,102321.94
2023-01-25T23:48:19.365Z,102321.72
2023-01-25T23:50:49.089Z,102315.53
2023-01-25T23:53:18.853Z,102318.03
2023-01-25T23:55:55.098Z,102303.19
2023-01-25T23:58:28.363Z,102289.72
